sensor_id;sensor_type;location;lat;lon;timestamp;P1;durP1;ratioP1;P2;durP2;ratioP2
55913;SDS011;58179;48.776;9.124;2022-12-07T00:00:43;32.78;;;17.65;;
55913;SDS011;58179;48.776;9.124;2022-12-07T00:03:10;38.00;;;19.35;;
55913;SDS011;58179;48.776;9.124;2022-12-07T00:05:36;31.50;;;17.25;;
55913;SDS011;58179;48.776;9.124;2022-12-07T00:08:02;32.83;;;18.23;;
55913;SDS011;58179;48.776;9.124;2022-12-07T00:10:28;34.45;;;17.92;;
55913;SDS011;58179;48.776;9.124;2022-12-07T00:12:54;34.20;;;17.55;;
55913;SDS011;58179;48.776;9.124;2022-12-07T00:15:19;35.67;;;18.20;;
55913;SDS011;58179;48.776;9.124;2022-12-07T00:17:45;33.13;;;17.98;;
55913;SDS011;58179;48.776;9.124;2022-12-07T00:20:12;34.45;;;18.90;;
55913;SDS011;58179;48.776;9.124;2022-12-07T00:22:38;32.85;;;18.48;;
55913;SDS011;58179;48.776;9.124;2022-12-07T00:25:04;39.58;;;20.52;;
55913;SDS011;58179;48.776;9.124;2022-12-07T00:27:31;31.35;;;17.60;;
55913;SDS011;58179;48.776;9.124;2022-12-07T00:29:56;33.65;;;18.30;;
55913;SDS011;58179;48.776;9.124;2022-12-07T00:32:22;34.33;;;19.83;;
55913;SDS011;58179;48.776;9.124;2022-12-07T00:34:48;37.17;;;20.05;;
55913;SDS011;58179;48.776;9.124;2022-12-07T00:37:15;33.97;;;18.92;;
55913;SDS011;58179;48.776;9.124;2022-12-07T00:39:41;31.13;;;17.73;;
55913;SDS011;58179;48.776;9.124;2022-12-07T00:42:07;38.75;;;20.95;;
55913;SDS011;58179;48.776;9.124;2022-12-07T00:44:33;38.23;;;20.13;;
55913;SDS011;58179;48.776;9.124;2022-12-07T00:46:59;40.72;;;21.27;;
55913;SDS011;58179;48.776;9.124;2022-12-07T00:49:25;44.05;;;21.95;;
55913;SDS011;58179;48.776;9.124;2022-12-07T00:51:50;44.47;;;22.17;;
55913;SDS011;58179;48.776;9.124;2022-12-07T00:54:18;42.53;;;22.25;;
55913;SDS011;58179;48.776;9.124;2022-12-07T00:56:43;43.50;;;22.15;;
55913;SDS011;58179;48.776;9.124;2022-12-07T00:59:10;48.28;;;23.70;;
55913;SDS011;58179;48.776;9.124;2022-12-07T01:01:40;38.63;;;21.25;;
55913;SDS011;58179;48.776;9.124;2022-12-07T01:04:06;45.17;;;22.05;;
55913;SDS011;58179;48.776;9.124;2022-12-07T01:06:32;44.25;;;22.55;;
55913;SDS011;58179;48.776;9.124;2022-12-07T01:08:59;43.17;;;21.77;;
55913;SDS011;58179;48.776;9.124;2022-12-07T01:11:27;44.53;;;22.35;;
55913;SDS011;58179;48.776;9.124;2022-12-07T01:13:55;42.40;;;21.60;;
55913;SDS011;58179;48.776;9.124;2022-12-07T01:16:23;40.45;;;20.98;;
55913;SDS011;58179;48.776;9.124;2022-12-07T01:18:53;44.40;;;23.35;;
55913;SDS011;58179;48.776;9.124;2022-12-07T01:21:21;45.10;;;22.23;;
55913;SDS011;58179;48.776;9.124;2022-12-07T01:23:49;48.00;;;23.35;;
55913;SDS011;58179;48.776;9.124;2022-12-07T01:26:17;45.67;;;22.83;;
55913;SDS011;58179;48.776;9.124;2022-12-07T01:28:46;50.33;;;23.30;;
55913;SDS011;58179;48.776;9.124;2022-12-07T01:31:13;54.38;;;24.15;;
55913;SDS011;58179;48.776;9.124;2022-12-07T01:33:41;48.75;;;22.75;;
55913;SDS011;58179;48.776;9.124;2022-12-07T01:36:12;55.47;;;24.77;;
55913;SDS011;58179;48.776;9.124;2022-12-07T01:38:40;52.78;;;24.42;;
55913;SDS011;58179;48.776;9.124;2022-12-07T01:41:06;61.15;;;26.40;;
55913;SDS011;58179;48.776;9.124;2022-12-07T01:43:33;63.67;;;27.17;;
55913;SDS011;58179;48.776;9.124;2022-12-07T01:46:01;51.65;;;25.70;;
55913;SDS011;58179;48.776;9.124;2022-12-07T01:48:30;51.93;;;24.37;;
55913;SDS011;58179;48.776;9.124;2022-12-07T01:51:00;49.53;;;23.20;;
55913;SDS011;58179;48.776;9.124;2022-12-07T01:53:32;58.15;;;24.98;;
55913;SDS011;58179;48.776;9.124;2022-12-07T01:56:03;44.97;;;22.40;;
55913;SDS011;58179;48.776;9.124;2022-12-07T01:58:33;47.10;;;21.83;;
55913;SDS011;58179;48.776;9.124;2022-12-07T02:01:00;49.27;;;22.37;;
55913;SDS011;58179;48.776;9.124;2022-12-07T02:03:27;61.72;;;26.17;;
55913;SDS011;58179;48.776;9.124;2022-12-07T02:06:00;55.72;;;24.27;;
55913;SDS011;58179;48.776;9.124;2022-12-07T02:08:26;55.93;;;24.17;;
55913;SDS011;58179;48.776;9.124;2022-12-07T02:10:52;53.42;;;23.73;;
55913;SDS011;58179;48.776;9.124;2022-12-07T02:13:18;51.23;;;22.27;;
55913;SDS011;58179;48.776;9.124;2022-12-07T02:15:55;56.90;;;25.67;;
55913;SDS011;58179;48.776;9.124;2022-12-07T02:18:42;50.00;;;23.80;;
55913;SDS011;58179;48.776;9.124;2022-12-07T02:21:23;55.05;;;24.77;;
55913;SDS011;58179;48.776;9.124;2022-12-07T02:24:14;51.85;;;23.63;;
55913;SDS011;58179;48.776;9.124;2022-12-07T02:30:04;50.47;;;23.70;;
55913;SDS011;58179;48.776;9.124;2022-12-07T02:32:35;47.83;;;22.33;;
55913;SDS011;58179;48.776;9.124;2022-12-07T02:35:09;51.78;;;23.15;;
55913;SDS011;58179;48.776;9.124;2022-12-07T02:37:43;43.17;;;21.33;;
55913;SDS011;58179;48.776;9.124;2022-12-07T02:40:29;48.67;;;22.70;;
55913;SDS011;58179;48.776;9.124;2022-12-07T02:43:01;37.28;;;20.00;;
55913;SDS011;58179;48.776;9.124;2022-12-07T02:45:34;49.10;;;22.05;;
55913;SDS011;58179;48.776;9.124;2022-12-07T02:48:04;43.90;;;21.38;;
55913;SDS011;58179;48.776;9.124;2022-12-07T02:50:33;48.07;;;21.73;;
55913;SDS011;58179;48.776;9.124;2022-12-07T02:52:59;38.65;;;19.60;;
55913;SDS011;58179;48.776;9.124;2022-12-07T02:55:26;37.42;;;18.42;;
55913;SDS011;58179;48.776;9.124;2022-12-07T02:58:05;38.95;;;20.25;;
55913;SDS011;58179;48.776;9.124;2022-12-07T03:00:51;48.80;;;21.67;;
55913;SDS011;58179;48.776;9.124;2022-12-07T03:03:27;41.60;;;20.63;;
55913;SDS011;58179;48.776;9.124;2022-12-07T03:05:58;40.65;;;20.15;;
55913;SDS011;58179;48.776;9.124;2022-12-07T03:08:38;41.90;;;21.10;;
55913;SDS011;58179;48.776;9.124;2022-12-07T03:11:16;38.22;;;19.90;;
55913;SDS011;58179;48.776;9.124;2022-12-07T03:13:52;49.03;;;22.08;;
55913;SDS011;58179;48.776;9.124;2022-12-07T03:16:27;53.33;;;22.50;;
55913;SDS011;58179;48.776;9.124;2022-12-07T03:18:56;42.70;;;20.90;;
55913;SDS011;58179;48.776;9.124;2022-12-07T03:21:27;38.92;;;19.83;;
55913;SDS011;58179;48.776;9.124;2022-12-07T03:24:00;38.83;;;20.92;;
55913;SDS011;58179;48.776;9.124;2022-12-07T03:26:34;43.72;;;21.13;;
55913;SDS011;58179;48.776;9.124;2022-12-07T03:29:07;34.93;;;19.53;;
55913;SDS011;58179;48.776;9.124;2022-12-07T03:31:40;38.67;;;19.97;;
55913;SDS011;58179;48.776;9.124;2022-12-07T03:34:11;41.13;;;20.50;;
55913;SDS011;58179;48.776;9.124;2022-12-07T03:36:42;33.95;;;19.08;;
55913;SDS011;58179;48.776;9.124;2022-12-07T03:39:13;40.88;;;21.23;;
55913;SDS011;58179;48.776;9.124;2022-12-07T03:41:47;38.22;;;19.70;;
55913;SDS011;58179;48.776;9.124;2022-12-07T03:44:14;34.92;;;19.42;;
55913;SDS011;58179;48.776;9.124;2022-12-07T03:46:44;37.83;;;20.92;;
55913;SDS011;58179;48.776;9.124;2022-12-07T03:49:16;37.30;;;19.55;;
55913;SDS011;58179;48.776;9.124;2022-12-07T03:51:50;40.83;;;20.93;;
55913;SDS011;58179;48.776;9.124;2022-12-07T03:54:23;39.63;;;20.50;;
55913;SDS011;58179;48.776;9.124;2022-12-07T03:56:56;39.80;;;20.60;;
55913;SDS011;58179;48.776;9.124;2022-12-07T03:59:23;39.70;;;20.80;;
55913;SDS011;58179;48.776;9.124;2022-12-07T04:01:53;34.80;;;19.73;;
55913;SDS011;58179;48.776;9.124;2022-12-07T04:04:21;38.30;;;20.30;;
55913;SDS011;58179;48.776;9.124;2022-12-07T04:06:48;37.88;;;20.23;;
55913;SDS011;58179;48.776;9.124;2022-12-07T04:09:14;45.25;;;21.55;;
55913;SDS011;58179;48.776;9.124;2022-12-07T04:11:40;43.13;;;21.92;;
55913;SDS011;58179;48.776;9.124;2022-12-07T04:14:06;35.08;;;20.08;;
55913;SDS011;58179;48.776;9.124;2022-12-07T04:16:44;33.13;;;18.08;;
55913;SDS011;58179;48.776;9.124;2022-12-07T04:19:11;33.55;;;19.13;;
55913;SDS011;58179;48.776;9.124;2022-12-07T04:21:37;34.47;;;18.88;;
55913;SDS011;58179;48.776;9.124;2022-12-07T04:24:04;38.13;;;19.13;;
55913;SDS011;58179;48.776;9.124;2022-12-07T04:26:30;32.05;;;18.67;;
55913;SDS011;58179;48.776;9.124;2022-12-07T04:28:56;32.90;;;18.27;;
55913;SDS011;58179;48.776;9.124;2022-12-07T04:31:22;30.33;;;17.23;;
55913;SDS011;58179;48.776;9.124;2022-12-07T04:33:48;31.23;;;17.27;;
55913;SDS011;58179;48.776;9.124;2022-12-07T04:36:15;23.83;;;13.90;;
55913;SDS011;58179;48.776;9.124;2022-12-07T04:38:41;20.52;;;13.55;;
55913;SDS011;58179;48.776;9.124;2022-12-07T04:41:07;22.33;;;14.43;;
55913;SDS011;58179;48.776;9.124;2022-12-07T04:43:34;23.52;;;14.77;;
55913;SDS011;58179;48.776;9.124;2022-12-07T04:46:00;24.50;;;15.05;;
55913;SDS011;58179;48.776;9.124;2022-12-07T04:48:27;24.40;;;14.67;;
55913;SDS011;58179;48.776;9.124;2022-12-07T04:50:53;25.88;;;15.45;;
55913;SDS011;58179;48.776;9.124;2022-12-07T04:53:20;23.65;;;14.60;;
55913;SDS011;58179;48.776;9.124;2022-12-07T04:55:46;22.50;;;12.57;;
55913;SDS011;58179;48.776;9.124;2022-12-07T04:58:13;18.65;;;11.93;;
55913;SDS011;58179;48.776;9.124;2022-12-07T05:00:39;19.50;;;12.00;;
55913;SDS011;58179;48.776;9.124;2022-12-07T05:03:05;17.70;;;10.70;;
55913;SDS011;58179;48.776;9.124;2022-12-07T05:05:31;18.05;;;11.20;;
55913;SDS011;58179;48.776;9.124;2022-12-07T05:07:57;18.88;;;11.90;;
55913;SDS011;58179;48.776;9.124;2022-12-07T05:10:25;14.57;;;10.05;;
55913;SDS011;58179;48.776;9.124;2022-12-07T05:12:51;17.02;;;10.88;;
55913;SDS011;58179;48.776;9.124;2022-12-07T05:15:16;19.75;;;12.32;;
55913;SDS011;58179;48.776;9.124;2022-12-07T05:17:43;18.20;;;11.67;;
55913;SDS011;58179;48.776;9.124;2022-12-07T05:20:09;17.95;;;10.75;;
55913;SDS011;58179;48.776;9.124;2022-12-07T05:22:36;18.63;;;11.02;;
55913;SDS011;58179;48.776;9.124;2022-12-07T05:25:02;18.05;;;10.75;;
55913;SDS011;58179;48.776;9.124;2022-12-07T05:27:29;16.13;;;10.07;;
55913;SDS011;58179;48.776;9.124;2022-12-07T05:29:55;16.10;;;10.32;;
55913;SDS011;58179;48.776;9.124;2022-12-07T05:32:21;20.83;;;11.45;;
55913;SDS011;58179;48.776;9.124;2022-12-07T05:34:47;17.80;;;10.93;;
55913;SDS011;58179;48.776;9.124;2022-12-07T05:37:13;20.98;;;12.60;;
55913;SDS011;58179;48.776;9.124;2022-12-07T05:39:39;24.05;;;13.40;;
55913;SDS011;58179;48.776;9.124;2022-12-07T05:42:08;22.33;;;12.90;;
55913;SDS011;58179;48.776;9.124;2022-12-07T05:44:39;21.63;;;12.50;;
55913;SDS011;58179;48.776;9.124;2022-12-07T05:47:06;23.33;;;13.13;;
55913;SDS011;58179;48.776;9.124;2022-12-07T05:49:32;24.42;;;13.13;;
55913;SDS011;58179;48.776;9.124;2022-12-07T05:51:58;23.45;;;12.75;;
55913;SDS011;58179;48.776;9.124;2022-12-07T05:54:24;26.73;;;14.15;;
55913;SDS011;58179;48.776;9.124;2022-12-07T05:56:50;24.45;;;13.35;;
55913;SDS011;58179;48.776;9.124;2022-12-07T05:59:16;27.10;;;14.02;;
55913;SDS011;58179;48.776;9.124;2022-12-07T06:01:49;26.77;;;13.23;;
55913;SDS011;58179;48.776;9.124;2022-12-07T06:04:16;27.45;;;14.20;;
55913;SDS011;58179;48.776;9.124;2022-12-07T06:06:42;24.77;;;13.73;;
55913;SDS011;58179;48.776;9.124;2022-12-07T06:09:08;25.27;;;13.38;;
55913;SDS011;58179;48.776;9.124;2022-12-07T06:11:34;24.35;;;13.55;;
55913;SDS011;58179;48.776;9.124;2022-12-07T06:14:19;26.63;;;13.47;;
55913;SDS011;58179;48.776;9.124;2022-12-07T06:16:45;23.60;;;12.95;;
55913;SDS011;58179;48.776;9.124;2022-12-07T06:19:12;23.95;;;12.90;;
55913;SDS011;58179;48.776;9.124;2022-12-07T06:21:38;27.35;;;13.98;;
55913;SDS011;58179;48.776;9.124;2022-12-07T06:24:05;25.95;;;13.50;;
55913;SDS011;58179;48.776;9.124;2022-12-07T06:26:31;23.38;;;13.23;;
55913;SDS011;58179;48.776;9.124;2022-12-07T06:28:57;24.20;;;12.73;;
55913;SDS011;58179;48.776;9.124;2022-12-07T06:31:23;28.23;;;13.63;;
55913;SDS011;58179;48.776;9.124;2022-12-07T06:33:49;24.85;;;12.70;;
55913;SDS011;58179;48.776;9.124;2022-12-07T06:36:16;25.45;;;12.90;;
55913;SDS011;58179;48.776;9.124;2022-12-07T06:38:42;26.02;;;13.60;;
55913;SDS011;58179;48.776;9.124;2022-12-07T06:41:07;25.67;;;13.80;;
55913;SDS011;58179;48.776;9.124;2022-12-07T06:43:33;25.85;;;13.32;;
55913;SDS011;58179;48.776;9.124;2022-12-07T06:45:59;20.47;;;12.83;;
55913;SDS011;58179;48.776;9.124;2022-12-07T06:48:25;22.00;;;12.13;;
55913;SDS011;58179;48.776;9.124;2022-12-07T06:50:51;20.53;;;11.30;;
55913;SDS011;58179;48.776;9.124;2022-12-07T06:53:18;18.48;;;11.13;;
55913;SDS011;58179;48.776;9.124;2022-12-07T06:55:44;15.98;;;10.02;;
55913;SDS011;58179;48.776;9.124;2022-12-07T06:58:10;20.50;;;11.10;;
55913;SDS011;58179;48.776;9.124;2022-12-07T07:00:36;16.75;;;10.25;;
55913;SDS011;58179;48.776;9.124;2022-12-07T07:03:02;16.40;;;10.27;;
55913;SDS011;58179;48.776;9.124;2022-12-07T07:05:28;17.33;;;10.77;;
55913;SDS011;58179;48.776;9.124;2022-12-07T07:07:54;15.97;;;10.13;;
55913;SDS011;58179;48.776;9.124;2022-12-07T07:10:21;18.15;;;10.73;;
55913;SDS011;58179;48.776;9.124;2022-12-07T07:12:47;15.73;;;9.93;;
55913;SDS011;58179;48.776;9.124;2022-12-07T07:15:13;16.17;;;10.60;;
55913;SDS011;58179;48.776;9.124;2022-12-07T07:17:39;16.52;;;9.60;;
55913;SDS011;58179;48.776;9.124;2022-12-07T07:20:05;14.75;;;9.02;;
55913;SDS011;58179;48.776;9.124;2022-12-07T07:22:32;15.07;;;9.13;;
55913;SDS011;58179;48.776;9.124;2022-12-07T07:24:58;17.83;;;9.68;;
55913;SDS011;58179;48.776;9.124;2022-12-07T07:27:25;14.67;;;8.83;;
55913;SDS011;58179;48.776;9.124;2022-12-07T07:29:51;14.00;;;8.85;;
55913;SDS011;58179;48.776;9.124;2022-12-07T07:32:17;14.03;;;8.97;;
55913;SDS011;58179;48.776;9.124;2022-12-07T07:34:43;12.43;;;8.23;;
55913;SDS011;58179;48.776;9.124;2022-12-07T07:37:09;14.80;;;8.88;;
55913;SDS011;58179;48.776;9.124;2022-12-07T07:39:37;14.10;;;8.75;;
55913;SDS011;58179;48.776;9.124;2022-12-07T07:42:03;13.80;;;9.07;;
55913;SDS011;58179;48.776;9.124;2022-12-07T07:44:31;13.95;;;8.48;;
55913;SDS011;58179;48.776;9.124;2022-12-07T07:46:57;16.70;;;8.80;;
55913;SDS011;58179;48.776;9.124;2022-12-07T07:49:23;14.10;;;8.77;;
55913;SDS011;58179;48.776;9.124;2022-12-07T07:51:48;12.85;;;8.20;;
55913;SDS011;58179;48.776;9.124;2022-12-07T07:54:14;11.30;;;8.00;;
55913;SDS011;58179;48.776;9.124;2022-12-07T07:56:40;12.20;;;8.38;;
55913;SDS011;58179;48.776;9.124;2022-12-07T07:59:06;12.38;;;8.10;;
55913;SDS011;58179;48.776;9.124;2022-12-07T08:01:34;12.68;;;8.40;;
55913;SDS011;58179;48.776;9.124;2022-12-07T08:04:00;13.75;;;8.30;;
55913;SDS011;58179;48.776;9.124;2022-12-07T08:06:26;15.53;;;8.93;;
55913;SDS011;58179;48.776;9.124;2022-12-07T08:08:52;14.13;;;9.18;;
55913;SDS011;58179;48.776;9.124;2022-12-07T08:11:18;16.63;;;9.48;;
55913;SDS011;58179;48.776;9.124;2022-12-07T08:13:44;14.65;;;8.52;;
55913;SDS011;58179;48.776;9.124;2022-12-07T08:16:11;13.95;;;9.25;;
55913;SDS011;58179;48.776;9.124;2022-12-07T08:18:41;13.32;;;8.70;;
55913;SDS011;58179;48.776;9.124;2022-12-07T08:21:09;15.25;;;9.45;;
55913;SDS011;58179;48.776;9.124;2022-12-07T08:23:37;14.63;;;8.75;;
55913;SDS011;58179;48.776;9.124;2022-12-07T08:26:04;12.25;;;8.48;;
55913;SDS011;58179;48.776;9.124;2022-12-07T08:28:33;14.55;;;8.50;;
55913;SDS011;58179;48.776;9.124;2022-12-07T08:30:59;12.17;;;7.73;;
55913;SDS011;58179;48.776;9.124;2022-12-07T08:33:25;11.95;;;8.00;;
55913;SDS011;58179;48.776;9.124;2022-12-07T08:35:53;11.35;;;7.78;;
55913;SDS011;58179;48.776;9.124;2022-12-07T08:38:19;14.88;;;8.25;;
55913;SDS011;58179;48.776;9.124;2022-12-07T08:40:52;10.98;;;7.75;;
55913;SDS011;58179;48.776;9.124;2022-12-07T08:43:19;11.27;;;7.13;;
55913;SDS011;58179;48.776;9.124;2022-12-07T08:45:45;10.37;;;7.13;;
55913;SDS011;58179;48.776;9.124;2022-12-07T08:48:12;10.85;;;7.32;;
55913;SDS011;58179;48.776;9.124;2022-12-07T08:50:42;10.25;;;6.75;;
55913;SDS011;58179;48.776;9.124;2022-12-07T08:53:09;8.63;;;6.65;;
55913;SDS011;58179;48.776;9.124;2022-12-07T08:55:35;12.40;;;7.33;;
55913;SDS011;58179;48.776;9.124;2022-12-07T08:58:01;11.07;;;7.20;;
55913;SDS011;58179;48.776;9.124;2022-12-07T09:00:28;14.05;;;8.30;;
55913;SDS011;58179;48.776;9.124;2022-12-07T09:02:54;11.48;;;7.50;;
55913;SDS011;58179;48.776;9.124;2022-12-07T09:05:20;11.00;;;7.03;;
55913;SDS011;58179;48.776;9.124;2022-12-07T09:07:48;10.98;;;7.47;;
55913;SDS011;58179;48.776;9.124;2022-12-07T09:10:21;13.35;;;8.05;;
55913;SDS011;58179;48.776;9.124;2022-12-07T09:12:47;12.80;;;7.60;;
55913;SDS011;58179;48.776;9.124;2022-12-07T09:15:13;13.45;;;7.85;;
55913;SDS011;58179;48.776;9.124;2022-12-07T09:17:39;13.23;;;7.05;;
55913;SDS011;58179;48.776;9.124;2022-12-07T09:20:06;10.15;;;6.97;;
55913;SDS011;58179;48.776;9.124;2022-12-07T09:22:32;12.00;;;7.60;;
55913;SDS011;58179;48.776;9.124;2022-12-07T09:24:58;11.75;;;7.10;;
55913;SDS011;58179;48.776;9.124;2022-12-07T09:27:26;11.32;;;6.90;;
55913;SDS011;58179;48.776;9.124;2022-12-07T09:29:52;10.15;;;6.70;;
55913;SDS011;58179;48.776;9.124;2022-12-07T09:32:18;11.15;;;6.85;;
55913;SDS011;58179;48.776;9.124;2022-12-07T09:34:45;10.82;;;6.72;;
55913;SDS011;58179;48.776;9.124;2022-12-07T09:37:10;9.18;;;6.43;;
55913;SDS011;58179;48.776;9.124;2022-12-07T09:39:37;10.85;;;6.85;;
55913;SDS011;58179;48.776;9.124;2022-12-07T09:42:03;9.30;;;6.35;;
55913;SDS011;58179;48.776;9.124;2022-12-07T09:44:33;11.02;;;6.95;;
55913;SDS011;58179;48.776;9.124;2022-12-07T09:47:00;10.55;;;6.60;;
55913;SDS011;58179;48.776;9.124;2022-12-07T09:49:27;12.98;;;7.18;;
55913;SDS011;58179;48.776;9.124;2022-12-07T09:51:59;10.65;;;6.60;;
55913;SDS011;58179;48.776;9.124;2022-12-07T09:54:28;11.05;;;6.50;;
55913;SDS011;58179;48.776;9.124;2022-12-07T09:56:55;12.48;;;5.82;;
55913;SDS011;58179;48.776;9.124;2022-12-07T09:59:21;9.57;;;5.97;;
55913;SDS011;58179;48.776;9.124;2022-12-07T10:01:49;8.27;;;5.10;;
55913;SDS011;58179;48.776;9.124;2022-12-07T10:04:16;10.15;;;6.32;;
55913;SDS011;58179;48.776;9.124;2022-12-07T10:06:45;9.90;;;5.80;;
55913;SDS011;58179;48.776;9.124;2022-12-07T10:09:13;10.05;;;6.20;;
55913;SDS011;58179;48.776;9.124;2022-12-07T10:11:57;10.05;;;5.82;;
55913;SDS011;58179;48.776;9.124;2022-12-07T10:14:30;7.72;;;5.32;;
55913;SDS011;58179;48.776;9.124;2022-12-07T10:17:00;6.50;;;4.97;;
55913;SDS011;58179;48.776;9.124;2022-12-07T10:19:27;6.78;;;5.03;;
55913;SDS011;58179;48.776;9.124;2022-12-07T10:21:59;9.75;;;5.30;;
55913;SDS011;58179;48.776;9.124;2022-12-07T10:24:35;10.57;;;5.60;;
55913;SDS011;58179;48.776;9.124;2022-12-07T10:27:04;8.03;;;5.30;;
55913;SDS011;58179;48.776;9.124;2022-12-07T10:29:42;7.87;;;5.23;;
55913;SDS011;58179;48.776;9.124;2022-12-07T10:32:27;7.85;;;5.47;;
55913;SDS011;58179;48.776;9.124;2022-12-07T10:35:18;9.47;;;5.53;;
55913;SDS011;58179;48.776;9.124;2022-12-07T10:37:48;8.90;;;5.63;;
55913;SDS011;58179;48.776;9.124;2022-12-07T10:40:28;8.60;;;5.30;;
55913;SDS011;58179;48.776;9.124;2022-12-07T10:43:02;9.23;;;5.85;;
55913;SDS011;58179;48.776;9.124;2022-12-07T10:45:44;8.88;;;5.93;;
55913;SDS011;58179;48.776;9.124;2022-12-07T10:48:42;8.85;;;5.60;;
55913;SDS011;58179;48.776;9.124;2022-12-07T10:51:20;7.50;;;5.28;;
55913;SDS011;58179;48.776;9.124;2022-12-07T10:54:02;7.00;;;5.05;;
55913;SDS011;58179;48.776;9.124;2022-12-07T10:56:44;8.80;;;5.47;;
55913;SDS011;58179;48.776;9.124;2022-12-07T10:59:59;8.75;;;5.63;;
55913;SDS011;58179;48.776;9.124;2022-12-07T11:02:42;9.88;;;5.55;;
55913;SDS011;58179;48.776;9.124;2022-12-07T11:05:41;7.90;;;5.53;;
55913;SDS011;58179;48.776;9.124;2022-12-07T11:08:17;7.68;;;5.50;;
55913;SDS011;58179;48.776;9.124;2022-12-07T11:10:56;8.35;;;5.47;;
55913;SDS011;58179;48.776;9.124;2022-12-07T11:13:28;9.35;;;5.28;;
55913;SDS011;58179;48.776;9.124;2022-12-07T11:16:04;7.68;;;5.05;;
55913;SDS011;58179;48.776;9.124;2022-12-07T11:18:59;6.07;;;4.80;;
55913;SDS011;58179;48.776;9.124;2022-12-07T11:21:44;5.35;;;4.20;;
55913;SDS011;58179;48.776;9.124;2022-12-07T11:24:23;7.28;;;4.60;;
55913;SDS011;58179;48.776;9.124;2022-12-07T11:27:04;7.15;;;4.50;;
55913;SDS011;58179;48.776;9.124;2022-12-07T11:30:01;5.50;;;4.37;;
55913;SDS011;58179;48.776;9.124;2022-12-07T11:32:44;6.38;;;4.35;;
55913;SDS011;58179;48.776;9.124;2022-12-07T11:35:34;4.80;;;3.70;;
55913;SDS011;58179;48.776;9.124;2022-12-07T11:38:13;5.65;;;3.92;;
55913;SDS011;58179;48.776;9.124;2022-12-07T11:40:42;5.18;;;4.18;;
55913;SDS011;58179;48.776;9.124;2022-12-07T11:43:13;5.22;;;3.47;;
55913;SDS011;58179;48.776;9.124;2022-12-07T11:45:46;4.65;;;3.47;;
55913;SDS011;58179;48.776;9.124;2022-12-07T11:48:22;4.25;;;3.58;;
55913;SDS011;58179;48.776;9.124;2022-12-07T11:50:56;5.43;;;3.65;;
55913;SDS011;58179;48.776;9.124;2022-12-07T11:53:27;3.97;;;3.30;;
55913;SDS011;58179;48.776;9.124;2022-12-07T11:56:01;5.47;;;3.33;;
55913;SDS011;58179;48.776;9.124;2022-12-07T11:58:37;3.88;;;3.28;;
55913;SDS011;58179;48.776;9.124;2022-12-07T12:01:22;6.07;;;3.78;;
55913;SDS011;58179;48.776;9.124;2022-12-07T12:04:02;4.90;;;3.80;;
55913;SDS011;58179;48.776;9.124;2022-12-07T12:06:44;3.87;;;3.10;;
55913;SDS011;58179;48.776;9.124;2022-12-07T12:09:12;6.25;;;4.25;;
55913;SDS011;58179;48.776;9.124;2022-12-07T12:11:47;7.30;;;5.38;;
55913;SDS011;58179;48.776;9.124;2022-12-07T12:14:35;9.02;;;6.38;;
55913;SDS011;58179;48.776;9.124;2022-12-07T12:17:17;7.97;;;6.20;;
55913;SDS011;58179;48.776;9.124;2022-12-07T12:20:20;10.88;;;6.75;;
55913;SDS011;58179;48.776;9.124;2022-12-07T12:22:52;12.47;;;7.47;;
55913;SDS011;58179;48.776;9.124;2022-12-07T12:25:25;10.85;;;7.30;;
55913;SDS011;58179;48.776;9.124;2022-12-07T12:27:54;10.05;;;6.90;;
55913;SDS011;58179;48.776;9.124;2022-12-07T12:30:25;13.18;;;8.15;;
55913;SDS011;58179;48.776;9.124;2022-12-07T12:33:01;11.15;;;7.40;;
55913;SDS011;58179;48.776;9.124;2022-12-07T12:35:31;14.13;;;7.00;;
55913;SDS011;58179;48.776;9.124;2022-12-07T12:38:20;11.52;;;7.63;;
55913;SDS011;58179;48.776;9.124;2022-12-07T12:41:00;8.98;;;6.50;;
55913;SDS011;58179;48.776;9.124;2022-12-07T12:43:45;8.83;;;6.37;;
55913;SDS011;58179;48.776;9.124;2022-12-07T12:58:47;11.23;;;7.10;;
55913;SDS011;58179;48.776;9.124;2022-12-07T13:04:24;9.05;;;6.68;;
55913;SDS011;58179;48.776;9.124;2022-12-07T13:07:00;7.90;;;5.90;;
55913;SDS011;58179;48.776;9.124;2022-12-07T13:09:26;7.03;;;5.50;;
55913;SDS011;58179;48.776;9.124;2022-12-07T13:11:59;10.23;;;6.22;;
55913;SDS011;58179;48.776;9.124;2022-12-07T13:23:18;8.70;;;6.53;;
55913;SDS011;58179;48.776;9.124;2022-12-07T13:26:16;8.27;;;5.77;;
55913;SDS011;58179;48.776;9.124;2022-12-07T13:28:47;8.32;;;6.20;;
55913;SDS011;58179;48.776;9.124;2022-12-07T13:31:31;8.73;;;5.97;;
55913;SDS011;58179;48.776;9.124;2022-12-07T13:34:00;7.75;;;5.70;;
55913;SDS011;58179;48.776;9.124;2022-12-07T13:36:28;7.83;;;5.70;;
55913;SDS011;58179;48.776;9.124;2022-12-07T13:39:09;7.13;;;5.57;;
55913;SDS011;58179;48.776;9.124;2022-12-07T13:41:43;11.45;;;5.40;;
55913;SDS011;58179;48.776;9.124;2022-12-07T13:44:12;7.55;;;5.10;;
55913;SDS011;58179;48.776;9.124;2022-12-07T13:46:44;8.70;;;5.55;;
55913;SDS011;58179;48.776;9.124;2022-12-07T13:49:23;7.68;;;5.53;;
55913;SDS011;58179;48.776;9.124;2022-12-07T13:51:51;8.50;;;5.80;;
55913;SDS011;58179;48.776;9.124;2022-12-07T13:54:18;7.90;;;5.80;;
55913;SDS011;58179;48.776;9.124;2022-12-07T13:56:47;6.93;;;5.00;;
55913;SDS011;58179;48.776;9.124;2022-12-07T13:59:18;9.50;;;6.00;;
55913;SDS011;58179;48.776;9.124;2022-12-07T14:01:48;8.05;;;5.78;;
55913;SDS011;58179;48.776;9.124;2022-12-07T14:04:16;10.93;;;5.95;;
55913;SDS011;58179;48.776;9.124;2022-12-07T14:07:18;9.18;;;6.28;;
55913;SDS011;58179;48.776;9.124;2022-12-07T14:09:54;6.97;;;5.05;;
55913;SDS011;58179;48.776;9.124;2022-12-07T14:12:23;8.40;;;5.25;;
55913;SDS011;58179;48.776;9.124;2022-12-07T14:14:52;7.85;;;5.15;;
55913;SDS011;58179;48.776;9.124;2022-12-07T14:17:20;10.68;;;5.57;;
55913;SDS011;58179;48.776;9.124;2022-12-07T14:19:48;6.57;;;5.10;;
55913;SDS011;58179;48.776;9.124;2022-12-07T14:22:24;8.33;;;5.10;;
55913;SDS011;58179;48.776;9.124;2022-12-07T14:27:53;7.68;;;5.68;;
55913;SDS011;58179;48.776;9.124;2022-12-07T14:30:23;6.85;;;5.13;;
55913;SDS011;58179;48.776;9.124;2022-12-07T14:32:52;8.05;;;5.57;;
55913;SDS011;58179;48.776;9.124;2022-12-07T14:35:22;11.55;;;5.93;;
55913;SDS011;58179;48.776;9.124;2022-12-07T14:37:48;10.80;;;6.13;;
55913;SDS011;58179;48.776;9.124;2022-12-07T14:40:16;9.47;;;6.40;;
55913;SDS011;58179;48.776;9.124;2022-12-07T14:42:45;9.23;;;6.50;;
55913;SDS011;58179;48.776;9.124;2022-12-07T14:45:14;7.82;;;5.80;;
55913;SDS011;58179;48.776;9.124;2022-12-07T14:47:44;9.95;;;6.70;;
55913;SDS011;58179;48.776;9.124;2022-12-07T14:50:11;10.85;;;7.00;;
55913;SDS011;58179;48.776;9.124;2022-12-07T14:52:38;11.93;;;7.15;;
55913;SDS011;58179;48.776;9.124;2022-12-07T14:55:11;12.27;;;7.45;;
55913;SDS011;58179;48.776;9.124;2022-12-07T14:57:41;11.63;;;7.78;;
55913;SDS011;58179;48.776;9.124;2022-12-07T15:00:08;10.15;;;6.97;;
55913;SDS011;58179;48.776;9.124;2022-12-07T15:02:39;11.88;;;8.18;;
55913;SDS011;58179;48.776;9.124;2022-12-07T15:05:06;15.00;;;8.75;;
55913;SDS011;58179;48.776;9.124;2022-12-07T15:07:33;13.27;;;8.23;;
55913;SDS011;58179;48.776;9.124;2022-12-07T15:09:59;15.95;;;8.50;;
55913;SDS011;58179;48.776;9.124;2022-12-07T15:12:24;14.73;;;8.63;;
55913;SDS011;58179;48.776;9.124;2022-12-07T15:14:50;12.85;;;8.73;;
55913;SDS011;58179;48.776;9.124;2022-12-07T15:17:16;13.77;;;7.97;;
55913;SDS011;58179;48.776;9.124;2022-12-07T15:19:42;12.90;;;7.13;;